sensor_id;sensor_type;location;lat;lon;timestamp;P1;durP1;ratioP1;P2;durP2;ratioP2
70148;SDS011;57514;52.164;5.282;2022-12-05T00:03:44;27.13;;;12.27;;
70148;SDS011;57514;52.164;5.282;2022-12-05T00:06:11;34.60;;;14.40;;
70148;SDS011;57514;52.164;5.282;2022-12-05T00:08:39;32.88;;;13.50;;
70148;SDS011;57514;52.164;5.282;2022-12-05T00:11:10;37.72;;;15.32;;
70148;SDS011;57514;52.164;5.282;2022-12-05T00:13:38;31.15;;;13.50;;
70148;SDS011;57514;52.164;5.282;2022-12-05T00:16:07;38.15;;;14.15;;
70148;SDS011;57514;52.164;5.282;2022-12-05T00:18:35;32.60;;;14.45;;
70148;SDS011;57514;52.164;5.282;2022-12-05T00:21:02;30.85;;;11.98;;
70148;SDS011;57514;52.164;5.282;2022-12-05T00:23:30;34.53;;;13.20;;
70148;SDS011;57514;52.164;5.282;2022-12-05T00:26:00;36.20;;;14.15;;
70148;SDS011;57514;52.164;5.282;2022-12-05T00:28:27;36.80;;;14.30;;
70148;SDS011;57514;52.164;5.282;2022-12-05T00:30:55;31.02;;;12.13;;
70148;SDS011;57514;52.164;5.282;2022-12-05T00:33:22;33.53;;;12.90;;
70148;SDS011;57514;52.164;5.282;2022-12-05T00:35:49;36.80;;;14.48;;
70148;SDS011;57514;52.164;5.282;2022-12-05T00:38:16;37.28;;;13.77;;
70148;SDS011;57514;52.164;5.282;2022-12-05T00:40:43;36.45;;;13.68;;
70148;SDS011;57514;52.164;5.282;2022-12-05T00:43:11;35.95;;;15.20;;
70148;SDS011;57514;52.164;5.282;2022-12-05T00:45:38;36.95;;;14.05;;
70148;SDS011;57514;52.164;5.282;2022-12-05T00:48:05;40.47;;;15.23;;
70148;SDS011;57514;52.164;5.282;2022-12-05T00:50:33;36.28;;;14.35;;
70148;SDS011;57514;52.164;5.282;2022-12-05T00:53:00;32.95;;;14.15;;
70148;SDS011;57514;52.164;5.282;2022-12-05T00:55:27;33.13;;;12.88;;
70148;SDS011;57514;52.164;5.282;2022-12-05T00:57:54;39.20;;;15.50;;
70148;SDS011;57514;52.164;5.282;2022-12-05T01:00:21;33.88;;;14.15;;
70148;SDS011;57514;52.164;5.282;2022-12-05T01:02:49;25.15;;;9.70;;
70148;SDS011;57514;52.164;5.282;2022-12-05T01:05:16;26.88;;;11.43;;
70148;SDS011;57514;52.164;5.282;2022-12-05T01:07:43;34.22;;;13.35;;
70148;SDS011;57514;52.164;5.282;2022-12-05T01:10:10;32.72;;;12.57;;
70148;SDS011;57514;52.164;5.282;2022-12-05T01:12:38;27.30;;;10.95;;
70148;SDS011;57514;52.164;5.282;2022-12-05T01:15:05;29.23;;;12.27;;
70148;SDS011;57514;52.164;5.282;2022-12-05T01:17:32;38.05;;;15.38;;
70148;SDS011;57514;52.164;5.282;2022-12-05T01:20:01;35.42;;;13.38;;
70148;SDS011;57514;52.164;5.282;2022-12-05T01:22:28;37.53;;;14.80;;
70148;SDS011;57514;52.164;5.282;2022-12-05T01:24:55;28.15;;;12.05;;
70148;SDS011;57514;52.164;5.282;2022-12-05T01:27:23;38.47;;;15.05;;
70148;SDS011;57514;52.164;5.282;2022-12-05T01:29:50;39.97;;;14.48;;
70148;SDS011;57514;52.164;5.282;2022-12-05T01:32:17;28.23;;;11.73;;
70148;SDS011;57514;52.164;5.282;2022-12-05T01:34:45;33.95;;;12.82;;
70148;SDS011;57514;52.164;5.282;2022-12-05T01:37:12;39.17;;;15.40;;
70148;SDS011;57514;52.164;5.282;2022-12-05T01:39:39;40.67;;;15.35;;
70148;SDS011;57514;52.164;5.282;2022-12-05T01:42:07;27.85;;;11.57;;
70148;SDS011;57514;52.164;5.282;2022-12-05T01:47:01;28.25;;;11.27;;
70148;SDS011;57514;52.164;5.282;2022-12-05T01:49:35;30.63;;;12.50;;
70148;SDS011;57514;52.164;5.282;2022-12-05T01:52:06;31.95;;;13.57;;
70148;SDS011;57514;52.164;5.282;2022-12-05T01:54:35;40.22;;;15.45;;
70148;SDS011;57514;52.164;5.282;2022-12-05T01:57:04;37.22;;;15.25;;
70148;SDS011;57514;52.164;5.282;2022-12-05T01:59:33;35.90;;;13.43;;
70148;SDS011;57514;52.164;5.282;2022-12-05T02:02:02;32.53;;;12.43;;
70148;SDS011;57514;52.164;5.282;2022-12-05T02:04:30;28.90;;;10.35;;
70148;SDS011;57514;52.164;5.282;2022-12-05T02:07:00;26.20;;;10.75;;
70148;SDS011;57514;52.164;5.282;2022-12-05T02:09:27;33.60;;;13.18;;
70148;SDS011;57514;52.164;5.282;2022-12-05T02:11:56;32.08;;;14.00;;
70148;SDS011;57514;52.164;5.282;2022-12-05T02:20:04;35.58;;;13.93;;
70148;SDS011;57514;52.164;5.282;2022-12-05T02:25:16;34.00;;;13.95;;
70148;SDS011;57514;52.164;5.282;2022-12-05T02:28:36;30.80;;;13.20;;
70148;SDS011;57514;52.164;5.282;2022-12-05T02:30:44;34.78;;;14.40;;
70148;SDS011;57514;52.164;5.282;2022-12-05T02:33:20;26.48;;;9.82;;
70148;SDS011;57514;52.164;5.282;2022-12-05T02:35:53;27.77;;;11.18;;
70148;SDS011;57514;52.164;5.282;2022-12-05T02:38:29;29.50;;;12.85;;
70148;SDS011;57514;52.164;5.282;2022-12-05T02:41:00;34.65;;;13.65;;
70148;SDS011;57514;52.164;5.282;2022-12-05T02:46:00;30.85;;;12.32;;
70148;SDS011;57514;52.164;5.282;2022-12-05T02:48:29;32.00;;;12.63;;
70148;SDS011;57514;52.164;5.282;2022-12-05T02:50:57;32.75;;;11.50;;
70148;SDS011;57514;52.164;5.282;2022-12-05T02:53:25;32.28;;;12.60;;
70148;SDS011;57514;52.164;5.282;2022-12-05T02:55:53;33.55;;;12.85;;
70148;SDS011;57514;52.164;5.282;2022-12-05T02:58:26;32.65;;;13.30;;
70148;SDS011;57514;52.164;5.282;2022-12-05T03:00:57;33.05;;;13.40;;
70148;SDS011;57514;52.164;5.282;2022-12-05T03:03:25;31.38;;;11.63;;
70148;SDS011;57514;52.164;5.282;2022-12-05T03:05:55;32.08;;;12.65;;
70148;SDS011;57514;52.164;5.282;2022-12-05T03:08:27;30.27;;;12.55;;
70148;SDS011;57514;52.164;5.282;2022-12-05T03:10:55;31.98;;;12.55;;
70148;SDS011;57514;52.164;5.282;2022-12-05T03:13:26;31.70;;;12.55;;
70148;SDS011;57514;52.164;5.282;2022-12-05T03:15:59;33.90;;;12.48;;
70148;SDS011;57514;52.164;5.282;2022-12-05T03:18:32;31.67;;;13.07;;
70148;SDS011;57514;52.164;5.282;2022-12-05T03:21:03;25.08;;;9.50;;
70148;SDS011;57514;52.164;5.282;2022-12-05T03:23:32;30.70;;;12.68;;
70148;SDS011;57514;52.164;5.282;2022-12-05T03:31:18;32.55;;;12.50;;
70148;SDS011;57514;52.164;5.282;2022-12-05T03:33:47;29.85;;;13.10;;
70148;SDS011;57514;52.164;5.282;2022-12-05T03:36:21;33.53;;;13.48;;
70148;SDS011;57514;52.164;5.282;2022-12-05T03:38:51;32.70;;;13.63;;
70148;SDS011;57514;52.164;5.282;2022-12-05T03:41:21;34.95;;;13.02;;
70148;SDS011;57514;52.164;5.282;2022-12-05T03:44:11;34.75;;;12.75;;
70148;SDS011;57514;52.164;5.282;2022-12-05T03:49:11;31.42;;;11.98;;
70148;SDS011;57514;52.164;5.282;2022-12-05T03:51:48;32.08;;;11.55;;
70148;SDS011;57514;52.164;5.282;2022-12-05T03:54:22;31.60;;;12.52;;
70148;SDS011;57514;52.164;5.282;2022-12-05T03:56:58;32.17;;;13.20;;
70148;SDS011;57514;52.164;5.282;2022-12-05T04:01:59;29.20;;;13.10;;
70148;SDS011;57514;52.164;5.282;2022-12-05T04:04:29;27.50;;;11.77;;
70148;SDS011;57514;52.164;5.282;2022-12-05T04:06:57;33.70;;;13.23;;
70148;SDS011;57514;52.164;5.282;2022-12-05T04:09:28;28.63;;;11.23;;
70148;SDS011;57514;52.164;5.282;2022-12-05T04:11:59;31.52;;;12.73;;
70148;SDS011;57514;52.164;5.282;2022-12-05T04:14:29;29.15;;;13.50;;
70148;SDS011;57514;52.164;5.282;2022-12-05T04:17:00;25.10;;;10.15;;
70148;SDS011;57514;52.164;5.282;2022-12-05T04:19:36;35.90;;;13.60;;
70148;SDS011;57514;52.164;5.282;2022-12-05T04:22:40;22.63;;;10.23;;
70148;SDS011;57514;52.164;5.282;2022-12-05T04:25:09;28.70;;;12.20;;
70148;SDS011;57514;52.164;5.282;2022-12-05T04:27:58;32.60;;;13.10;;
70148;SDS011;57514;52.164;5.282;2022-12-05T04:38:14;29.02;;;11.90;;
70148;SDS011;57514;52.164;5.282;2022-12-05T04:40:45;26.02;;;10.77;;
70148;SDS011;57514;52.164;5.282;2022-12-05T04:45:41;27.73;;;11.23;;
70148;SDS011;57514;52.164;5.282;2022-12-05T04:48:10;31.77;;;12.82;;
70148;SDS011;57514;52.164;5.282;2022-12-05T04:50:38;32.15;;;13.25;;
70148;SDS011;57514;52.164;5.282;2022-12-05T04:53:06;29.63;;;12.95;;
70148;SDS011;57514;52.164;5.282;2022-12-05T04:55:35;28.98;;;13.07;;
70148;SDS011;57514;52.164;5.282;2022-12-05T04:58:07;32.50;;;14.48;;
70148;SDS011;57514;52.164;5.282;2022-12-05T05:03:29;29.75;;;11.95;;
70148;SDS011;57514;52.164;5.282;2022-12-05T05:05:57;32.42;;;12.40;;
70148;SDS011;57514;52.164;5.282;2022-12-05T05:08:27;33.40;;;13.63;;
70148;SDS011;57514;52.164;5.282;2022-12-05T05:11:10;35.90;;;13.70;;
70148;SDS011;57514;52.164;5.282;2022-12-05T05:13:39;33.42;;;13.70;;
70148;SDS011;57514;52.164;5.282;2022-12-05T05:16:06;34.67;;;13.82;;
70148;SDS011;57514;52.164;5.282;2022-12-05T05:18:33;34.88;;;14.60;;
70148;SDS011;57514;52.164;5.282;2022-12-05T05:21:00;32.75;;;12.48;;
70148;SDS011;57514;52.164;5.282;2022-12-05T05:23:28;34.60;;;14.25;;
70148;SDS011;57514;52.164;5.282;2022-12-05T05:25:55;31.88;;;11.60;;
70148;SDS011;57514;52.164;5.282;2022-12-05T05:28:22;35.80;;;13.75;;
70148;SDS011;57514;52.164;5.282;2022-12-05T05:30:49;34.13;;;13.65;;
70148;SDS011;57514;52.164;5.282;2022-12-05T05:33:17;33.22;;;12.98;;
70148;SDS011;57514;52.164;5.282;2022-12-05T05:35:44;35.13;;;14.13;;
70148;SDS011;57514;52.164;5.282;2022-12-05T05:38:11;33.55;;;14.30;;
70148;SDS011;57514;52.164;5.282;2022-12-05T05:40:38;32.45;;;12.70;;
70148;SDS011;57514;52.164;5.282;2022-12-05T05:43:06;32.15;;;13.13;;
70148;SDS011;57514;52.164;5.282;2022-12-05T05:45:35;33.33;;;11.10;;
70148;SDS011;57514;52.164;5.282;2022-12-05T05:48:02;34.45;;;13.77;;
70148;SDS011;57514;52.164;5.282;2022-12-05T05:50:29;31.38;;;12.52;;
70148;SDS011;57514;52.164;5.282;2022-12-05T05:52:57;36.53;;;13.45;;
70148;SDS011;57514;52.164;5.282;2022-12-05T05:55:24;33.38;;;13.48;;
70148;SDS011;57514;52.164;5.282;2022-12-05T05:57:51;35.85;;;14.35;;
70148;SDS011;57514;52.164;5.282;2022-12-05T06:00:19;31.45;;;12.80;;
70148;SDS011;57514;52.164;5.282;2022-12-05T06:02:46;36.78;;;13.68;;
70148;SDS011;57514;52.164;5.282;2022-12-05T06:05:13;33.40;;;12.85;;
70148;SDS011;57514;52.164;5.282;2022-12-05T06:07:41;32.03;;;13.00;;
70148;SDS011;57514;52.164;5.282;2022-12-05T06:10:08;41.40;;;15.27;;
70148;SDS011;57514;52.164;5.282;2022-12-05T06:12:36;38.20;;;13.70;;
70148;SDS011;57514;52.164;5.282;2022-12-05T06:15:03;34.22;;;14.18;;
70148;SDS011;57514;52.164;5.282;2022-12-05T06:17:30;38.58;;;14.90;;
70148;SDS011;57514;52.164;5.282;2022-12-05T06:19:58;27.60;;;10.63;;
70148;SDS011;57514;52.164;5.282;2022-12-05T06:22:25;28.63;;;11.02;;
70148;SDS011;57514;52.164;5.282;2022-12-05T06:24:52;39.13;;;14.15;;
70148;SDS011;57514;52.164;5.282;2022-12-05T06:27:20;33.85;;;13.57;;
70148;SDS011;57514;52.164;5.282;2022-12-05T06:29:47;34.25;;;13.30;;
70148;SDS011;57514;52.164;5.282;2022-12-05T06:32:14;34.97;;;14.32;;
70148;SDS011;57514;52.164;5.282;2022-12-05T06:34:42;34.20;;;13.20;;
70148;SDS011;57514;52.164;5.282;2022-12-05T06:37:09;37.03;;;12.80;;
70148;SDS011;57514;52.164;5.282;2022-12-05T06:39:36;33.85;;;13.25;;
70148;SDS011;57514;52.164;5.282;2022-12-05T06:42:04;28.45;;;11.90;;
70148;SDS011;57514;52.164;5.282;2022-12-05T06:44:31;31.73;;;13.63;;
70148;SDS011;57514;52.164;5.282;2022-12-05T06:46:58;35.28;;;13.85;;
70148;SDS011;57514;52.164;5.282;2022-12-05T06:49:25;33.55;;;13.07;;
70148;SDS011;57514;52.164;5.282;2022-12-05T06:52:03;33.67;;;13.50;;
70148;SDS011;57514;52.164;5.282;2022-12-05T06:54:30;30.08;;;13.10;;
70148;SDS011;57514;52.164;5.282;2022-12-05T06:56:57;35.30;;;13.45;;
70148;SDS011;57514;52.164;5.282;2022-12-05T06:59:24;28.20;;;11.82;;
70148;SDS011;57514;52.164;5.282;2022-12-05T07:01:52;32.03;;;13.68;;
70148;SDS011;57514;52.164;5.282;2022-12-05T07:04:21;29.35;;;12.80;;
70148;SDS011;57514;52.164;5.282;2022-12-05T07:06:50;34.90;;;13.32;;
70148;SDS011;57514;52.164;5.282;2022-12-05T07:09:18;29.25;;;11.52;;
70148;SDS011;57514;52.164;5.282;2022-12-05T07:11:46;30.95;;;13.32;;
70148;SDS011;57514;52.164;5.282;2022-12-05T07:14:14;30.05;;;11.23;;
70148;SDS011;57514;52.164;5.282;2022-12-05T07:17:01;29.25;;;11.88;;
70148;SDS011;57514;52.164;5.282;2022-12-05T07:19:29;27.45;;;11.82;;
70148;SDS011;57514;52.164;5.282;2022-12-05T07:21:56;26.20;;;10.68;;
70148;SDS011;57514;52.164;5.282;2022-12-05T07:24:23;27.90;;;11.55;;
70148;SDS011;57514;52.164;5.282;2022-12-05T07:26:50;27.27;;;11.82;;
70148;SDS011;57514;52.164;5.282;2022-12-05T07:29:17;27.92;;;10.95;;
70148;SDS011;57514;52.164;5.282;2022-12-05T07:31:45;27.73;;;11.75;;
70148;SDS011;57514;52.164;5.282;2022-12-05T07:34:12;27.48;;;10.40;;
70148;SDS011;57514;52.164;5.282;2022-12-05T07:36:39;27.90;;;10.80;;
70148;SDS011;57514;52.164;5.282;2022-12-05T07:39:06;24.50;;;10.00;;
70148;SDS011;57514;52.164;5.282;2022-12-05T07:41:34;23.85;;;9.50;;
70148;SDS011;57514;52.164;5.282;2022-12-05T07:44:05;24.95;;;10.57;;
70148;SDS011;57514;52.164;5.282;2022-12-05T07:46:34;25.75;;;10.85;;
70148;SDS011;57514;52.164;5.282;2022-12-05T07:49:01;26.13;;;11.13;;
70148;SDS011;57514;52.164;5.282;2022-12-05T07:51:28;24.85;;;10.25;;
70148;SDS011;57514;52.164;5.282;2022-12-05T07:53:57;21.88;;;9.98;;
70148;SDS011;57514;52.164;5.282;2022-12-05T07:56:24;24.00;;;9.85;;
70148;SDS011;57514;52.164;5.282;2022-12-05T07:58:51;23.45;;;10.13;;
70148;SDS011;57514;52.164;5.282;2022-12-05T08:01:20;28.30;;;11.45;;
70148;SDS011;57514;52.164;5.282;2022-12-05T08:03:48;26.13;;;11.10;;
70148;SDS011;57514;52.164;5.282;2022-12-05T08:06:16;26.55;;;10.75;;
70148;SDS011;57514;52.164;5.282;2022-12-05T08:08:44;20.50;;;10.23;;
70148;SDS011;57514;52.164;5.282;2022-12-05T08:11:15;24.83;;;11.32;;
70148;SDS011;57514;52.164;5.282;2022-12-05T08:13:43;22.65;;;9.30;;
70148;SDS011;57514;52.164;5.282;2022-12-05T08:16:11;23.35;;;10.93;;
70148;SDS011;57514;52.164;5.282;2022-12-05T08:18:39;21.13;;;9.38;;
70148;SDS011;57514;52.164;5.282;2022-12-05T08:21:08;22.90;;;10.20;;
70148;SDS011;57514;52.164;5.282;2022-12-05T08:23:36;22.48;;;9.50;;
70148;SDS011;57514;52.164;5.282;2022-12-05T08:26:04;25.80;;;9.98;;
70148;SDS011;57514;52.164;5.282;2022-12-05T08:28:33;21.67;;;9.10;;
70148;SDS011;57514;52.164;5.282;2022-12-05T08:31:07;23.23;;;9.77;;
70148;SDS011;57514;52.164;5.282;2022-12-05T08:33:35;23.45;;;9.82;;
70148;SDS011;57514;52.164;5.282;2022-12-05T08:36:04;24.17;;;10.25;;
70148;SDS011;57514;52.164;5.282;2022-12-05T08:38:31;22.63;;;9.40;;
70148;SDS011;57514;52.164;5.282;2022-12-05T08:40:59;22.73;;;10.05;;
70148;SDS011;57514;52.164;5.282;2022-12-05T08:43:28;20.65;;;8.63;;
70148;SDS011;57514;52.164;5.282;2022-12-05T08:45:55;27.65;;;11.63;;
70148;SDS011;57514;52.164;5.282;2022-12-05T08:48:22;20.60;;;8.93;;
70148;SDS011;57514;52.164;5.282;2022-12-05T08:50:54;19.90;;;8.77;;
70148;SDS011;57514;52.164;5.282;2022-12-05T08:53:22;19.40;;;8.57;;
70148;SDS011;57514;52.164;5.282;2022-12-05T08:55:49;17.95;;;8.15;;
70148;SDS011;57514;52.164;5.282;2022-12-05T08:58:17;17.42;;;7.80;;
70148;SDS011;57514;52.164;5.282;2022-12-05T09:00:44;17.15;;;7.97;;
70148;SDS011;57514;52.164;5.282;2022-12-05T09:03:12;14.13;;;6.43;;
70148;SDS011;57514;52.164;5.282;2022-12-05T09:05:39;16.70;;;6.57;;
70148;SDS011;57514;52.164;5.282;2022-12-05T09:08:06;15.05;;;6.03;;
70148;SDS011;57514;52.164;5.282;2022-12-05T09:10:33;15.65;;;6.57;;
70148;SDS011;57514;52.164;5.282;2022-12-05T09:13:01;15.00;;;6.38;;
70148;SDS011;57514;52.164;5.282;2022-12-05T09:15:28;14.60;;;6.72;;
70148;SDS011;57514;52.164;5.282;2022-12-05T09:17:55;16.63;;;7.18;;
70148;SDS011;57514;52.164;5.282;2022-12-05T09:20:22;17.48;;;7.18;;
70148;SDS011;57514;52.164;5.282;2022-12-05T09:22:50;14.25;;;6.28;;
70148;SDS011;57514;52.164;5.282;2022-12-05T09:25:18;16.58;;;7.10;;
70148;SDS011;57514;52.164;5.282;2022-12-05T09:27:45;17.55;;;6.85;;
70148;SDS011;57514;52.164;5.282;2022-12-05T09:30:12;14.10;;;7.22;;
70148;SDS011;57514;52.164;5.282;2022-12-05T09:32:40;15.10;;;6.80;;
70148;SDS011;57514;52.164;5.282;2022-12-05T09:35:07;15.82;;;6.82;;
70148;SDS011;57514;52.164;5.282;2022-12-05T09:37:34;14.07;;;6.55;;
70148;SDS011;57514;52.164;5.282;2022-12-05T09:40:05;14.98;;;6.15;;
70148;SDS011;57514;52.164;5.282;2022-12-05T09:55:23;14.48;;;6.53;;
70148;SDS011;57514;52.164;5.282;2022-12-05T09:58:00;12.95;;;6.03;;
70148;SDS011;57514;52.164;5.282;2022-12-05T10:00:28;13.80;;;6.32;;
70148;SDS011;57514;52.164;5.282;2022-12-05T10:02:58;14.88;;;5.53;;
70148;SDS011;57514;52.164;5.282;2022-12-05T10:05:34;13.27;;;5.72;;
70148;SDS011;57514;52.164;5.282;2022-12-05T10:08:11;10.95;;;4.97;;
70148;SDS011;57514;52.164;5.282;2022-12-05T10:13:39;11.80;;;5.28;;
70148;SDS011;57514;52.164;5.282;2022-12-05T10:16:13;12.40;;;5.40;;
70148;SDS011;57514;52.164;5.282;2022-12-05T10:18:47;11.40;;;5.00;;
70148;SDS011;57514;52.164;5.282;2022-12-05T10:21:32;11.27;;;4.68;;
70148;SDS011;57514;52.164;5.282;2022-12-05T10:24:03;11.18;;;4.63;;
70148;SDS011;57514;52.164;5.282;2022-12-05T10:26:32;8.60;;;3.53;;
70148;SDS011;57514;52.164;5.282;2022-12-05T10:29:11;10.02;;;4.10;;
70148;SDS011;57514;52.164;5.282;2022-12-05T10:31:41;9.07;;;3.95;;
70148;SDS011;57514;52.164;5.282;2022-12-05T10:34:12;10.00;;;3.88;;
70148;SDS011;57514;52.164;5.282;2022-12-05T10:36:50;9.40;;;3.58;;
70148;SDS011;57514;52.164;5.282;2022-12-05T10:39:19;10.23;;;4.18;;
70148;SDS011;57514;52.164;5.282;2022-12-05T10:41:46;12.50;;;4.65;;
70148;SDS011;57514;52.164;5.282;2022-12-05T10:44:16;10.57;;;4.05;;
70148;SDS011;57514;52.164;5.282;2022-12-05T10:46:44;9.57;;;4.15;;
70148;SDS011;57514;52.164;5.282;2022-12-05T10:49:11;9.95;;;3.95;;
70148;SDS011;57514;52.164;5.282;2022-12-05T10:51:38;9.07;;;3.75;;
70148;SDS011;57514;52.164;5.282;2022-12-05T10:54:12;11.13;;;3.95;;
70148;SDS011;57514;52.164;5.282;2022-12-05T10:56:44;9.50;;;4.25;;
70148;SDS011;57514;52.164;5.282;2022-12-05T10:59:13;10.35;;;3.97;;
70148;SDS011;57514;52.164;5.282;2022-12-05T11:06:50;10.38;;;4.30;;
70148;SDS011;57514;52.164;5.282;2022-12-05T11:09:22;10.45;;;4.10;;
70148;SDS011;57514;52.164;5.282;2022-12-05T11:11:59;10.93;;;4.50;;
70148;SDS011;57514;52.164;5.282;2022-12-05T11:14:26;9.85;;;4.45;;
70148;SDS011;57514;52.164;5.282;2022-12-05T11:16:56;7.93;;;4.30;;
70148;SDS011;57514;52.164;5.282;2022-12-05T11:19:28;10.77;;;4.35;;
70148;SDS011;57514;52.164;5.282;2022-12-05T11:21:56;13.13;;;4.63;;
70148;SDS011;57514;52.164;5.282;2022-12-05T11:29:35;12.88;;;4.78;;
70148;SDS011;57514;52.164;5.282;2022-12-05T11:32:03;11.32;;;4.78;;
70148;SDS011;57514;52.164;5.282;2022-12-05T11:35:17;11.75;;;4.95;;
70148;SDS011;57514;52.164;5.282;2022-12-05T11:37:23;11.50;;;4.55;;
70148;SDS011;57514;52.164;5.282;2022-12-05T11:39:51;11.15;;;5.25;;
70148;SDS011;57514;52.164;5.282;2022-12-05T11:42:34;12.07;;;5.28;;
70148;SDS011;57514;52.164;5.282;2022-12-05T11:47:57;12.60;;;6.05;;
70148;SDS011;57514;52.164;5.282;2022-12-05T11:53:17;12.38;;;4.90;;
70148;SDS011;57514;52.164;5.282;2022-12-05T11:55:50;11.93;;;5.88;;
70148;SDS011;57514;52.164;5.282;2022-12-05T12:06:10;12.80;;;4.47;;
70148;SDS011;57514;52.164;5.282;2022-12-05T12:17:13;10.35;;;3.95;;
70148;SDS011;57514;52.164;5.282;2022-12-05T12:19:51;11.95;;;4.63;;
70148;SDS011;57514;52.164;5.282;2022-12-05T12:27:34;11.68;;;4.40;;
70148;SDS011;57514;52.164;5.282;2022-12-05T12:30:23;12.73;;;4.53;;
70148;SDS011;57514;52.164;5.282;2022-12-05T12:36:10;11.45;;;5.15;;
70148;SDS011;57514;52.164;5.282;2022-12-05T12:41:12;11.45;;;4.35;;
70148;SDS011;57514;52.164;5.282;2022-12-05T12:43:45;15.77;;;5.20;;
70148;SDS011;57514;52.164;5.282;2022-12-05T12:48:56;10.68;;;3.78;;
70148;SDS011;57514;52.164;5.282;2022-12-05T12:51:24;14.35;;;4.68;;
70148;SDS011;57514;52.164;5.282;2022-12-05T12:53:56;10.32;;;4.47;;
70148;SDS011;57514;52.164;5.282;2022-12-05T12:59:06;11.07;;;4.93;;
70148;SDS011;57514;52.164;5.282;2022-12-05T13:01:38;10.98;;;4.85;;
70148;SDS011;57514;52.164;5.282;2022-12-05T13:04:12;12.77;;;4.50;;
70148;SDS011;57514;52.164;5.282;2022-12-05T13:09:28;11.55;;;4.53;;
70148;SDS011;57514;52.164;5.282;2022-12-05T13:11:58;11.70;;;4.47;;
70148;SDS011;57514;52.164;5.282;2022-12-05T13:14:26;11.30;;;4.40;;
70148;SDS011;57514;52.164;5.282;2022-12-05T13:16:55;10.45;;;4.30;;
70148;SDS011;57514;52.164;5.282;2022-12-05T13:21:57;10.30;;;4.00;;
70148;SDS011;57514;52.164;5.282;2022-12-05T13:24:26;12.75;;;4.85;;
70148;SDS011;57514;52.164;5.282;2022-12-05T13:26:56;10.48;;;4.20;;
70148;SDS011;57514;52.164;5.282;2022-12-05T13:29:30;10.75;;;4.20;;
70148;SDS011;57514;52.164;5.282;2022-12-05T13:31:58;10.77;;;4.40;;
70148;SDS011;57514;52.164;5.282;2022-12-05T13:37:08;10.88;;;4.88;;
70148;SDS011;57514;52.164;5.282;2022-12-05T13:39:55;10.48;;;3.90;;
70148;SDS011;57514;52.164;5.282;2022-12-05T13:42:44;11.55;;;4.32;;
70148;SDS011;57514;52.164;5.282;2022-12-05T13:45:14;9.90;;;4.13;;
70148;SDS011;57514;52.164;5.282;2022-12-05T13:47:52;11.32;;;4.65;;
70148;SDS011;57514;52.164;5.282;2022-12-05T13:52:58;13.98;;;4.80;;
70148;SDS011;57514;52.164;5.282;2022-12-05T13:55:28;9.13;;;4.07;;
70148;SDS011;57514;52.164;5.282;2022-12-05T14:00:47;13.07;;;4.38;;
70148;SDS011;57514;52.164;5.282;2022-12-05T14:06:00;10.30;;;4.28;;
70148;SDS011;57514;52.164;5.282;2022-12-05T14:18:49;9.85;;;4.25;;
70148;SDS011;57514;52.164;5.282;2022-12-05T14:34:35;11.77;;;4.88;;
70148;SDS011;57514;52.164;5.282;2022-12-05T14:37:05;11.25;;;4.50;;
70148;SDS011;57514;52.164;5.282;2022-12-05T14:39:47;11.13;;;4.05;;
70148;SDS011;57514;52.164;5.282;2022-12-05T14:44:47;9.65;;;3.83;;
70148;SDS011;57514;52.164;5.282;2022-12-05T14:47:19;12.60;;;4.40;;
70148;SDS011;57514;52.164;5.282;2022-12-05T14:49:57;10.05;;;4.07;;
70148;SDS011;57514;52.164;5.282;2022-12-05T14:52:29;9.93;;;3.70;;
70148;SDS011;57514;52.164;5.282;2022-12-05T14:54:59;10.23;;;4.15;;
70148;SDS011;57514;52.164;5.282;2022-12-05T14:57:27;8.88;;;3.85;;
70148;SDS011;57514;52.164;5.282;2022-12-05T14:59:59;12.38;;;3.92;;
70148;SDS011;57514;52.164;5.282;2022-12-05T15:02:29;10.60;;;4.65;;
70148;SDS011;57514;52.164;5.282;2022-12-05T15:05:03;11.25;;;4.35;;
70148;SDS011;57514;52.164;5.282;2022-12-05T15:07:32;14.85;;;7.18;;
70148;SDS011;57514;52.164;5.282;2022-12-05T15:15:03;10.38;;;4.03;;
70148;SDS011;57514;52.164;5.282;2022-12-05T15:20:33;11.05;;;4.93;;
70148;SDS011;57514;52.164;5.282;2022-12-05T15:25:52;11.57;;;4.50;;
70148;SDS011;57514;52.164;5.282;2022-12-05T15:28:24;16.25;;;6.35;;
70148;SDS011;57514;52.164;5.282;2022-12-05T15:30:54;14.40;;;5.30;;
70148;SDS011;57514;52.164;5.282;2022-12-05T15:33:23;13.30;;;5.82;;
70148;SDS011;57514;52.164;5.282;2022-12-05T15:35:51;14.25;;;5.40;;
70148;SDS011;57514;52.164;5.282;2022-12-05T15:38:22;14.57;;;5.40;;
70148;SDS011;57514;52.164;5.282;2022-12-05T15:40:56;13.57;;;5.30;;
70148;SDS011;57514;52.164;5.282;2022-12-05T15:43:28;14.57;;;5.57;;
70148;SDS011;57514;52.164;5.282;2022-12-05T15:48:54;11.07;;;4.68;;
70148;SDS011;57514;52.164;5.282;2022-12-05T15:51:39;10.40;;;4.63;;
70148;SDS011;57514;52.164;5.282;2022-12-05T15:54:10;11.38;;;4.97;;
70148;SDS011;57514;52.164;5.282;2022-12-05T15:56:39;10.68;;;4.65;;
70148;SDS011;57514;52.164;5.282;2022-12-05T15:59:18;12.95;;;5.70;;
70148;SDS011;57514;52.164;5.282;2022-12-05T16:01:48;14.90;;;5.40;;
70148;SDS011;57514;52.164;5.282;2022-12-05T16:06:51;12.73;;;5.63;;
70148;SDS011;57514;52.164;5.282;2022-12-05T16:09:20;14.90;;;5.68;;
70148;SDS011;57514;52.164;5.282;2022-12-05T16:12:04;14.20;;;5.70;;
70148;SDS011;57514;52.164;5.282;2022-12-05T16:14:33;13.68;;;5.55;;
70148;SDS011;57514;52.164;5.282;2022-12-05T16:17:21;13.73;;;5.43;;
70148;SDS011;57514;52.164;5.282;2022-12-05T16:19:49;13.75;;;5.93;;
70148;SDS011;57514;52.164;5.282;2022-12-05T16:22:18;13.77;;;6.15;;
70148;SDS011;57514;52.164;5.282;2022-12-05T16:27:21;14.02;;;6.10;;
70148;SDS011;57514;52.164;5.282;2022-12-05T16:32:36;13.75;;;5.85;;
70148;SDS011;57514;52.164;5.282;2022-12-05T16:38:00;15.30;;;6.07;;
70148;SDS011;57514;52.164;5.282;2022-12-05T16:40:28;16.83;;;5.97;;
70148;SDS011;57514;52.164;5.282;2022-12-05T16:43:02;16.77;;;6.43;;
70148;SDS011;57514;52.164;5.282;2022-12-05T16:45:38;14.38;;;6.15;;
70148;SDS011;57514;52.164;5.282;2022-12-05T16:48:13;14.57;;;6.38;;
70148;SDS011;57514;52.164;5.282;2022-12-05T16:50:40;18.83;;;6.05;;
70148;SDS011;57514;52.164;5.282;2022-12-05T16:55:36;14.75;;;6.55;;
70148;SDS011;57514;52.164;5.282;2022-12-05T16:58:07;15.18;;;6.35;;
70148;SDS011;57514;52.164;5.282;2022-12-05T17:00:41;17.83;;;6.40;;
70148;SDS011;57514;52.164;5.282;2022-12-05T17:03:16;14.35;;;6.03;;
70148;SDS011;57514;52.164;5.282;2022-12-05T17:06:00;15.75;;;6.85;;
70148;SDS011;57514;52.164;5.282;2022-12-05T17:08:27;15.05;;;5.90;;
70148;SDS011;57514;52.164;5.282;2022-12-05T17:10:54;14.15;;;6.32;;
70148;SDS011;57514;52.164;5.282;2022-12-05T17:13:24;22.70;;;10.00;;
70148;SDS011;57514;52.164;5.282;2022-12-05T17:15:53;13.35;;;5.22;;
70148;SDS011;57514;52.164;5.282;2022-12-05T17:18:21;14.32;;;6.03;;
70148;SDS011;57514;52.164;5.282;2022-12-05T17:20:56;13.90;;;5.55;;
70148;SDS011;57514;52.164;5.282;2022-12-05T17:23:25;12.50;;;4.90;;
70148;SDS011;57514;52.164;5.282;2022-12-05T17:25:53;18.52;;;8.05;;
70148;SDS011;57514;52.164;5.282;2022-12-05T17:28:21;13.30;;;5.18;;
70148;SDS011;57514;52.164;5.282;2022-12-05T17:30:48;13.07;;;6.05;;
70148;SDS011;57514;52.164;5.282;2022-12-05T17:33:16;12.10;;;4.75;;
70148;SDS011;57514;52.164;5.282;2022-12-05T17:35:44;12.75;;;5.30;;
70148;SDS011;57514;52.164;5.282;2022-12-05T17:38:12;12.13;;;5.03;;